Time;durP1;ratioP1;P1;durP2;ratioP2;P2;SDS_P1;SDS_P2;PMS_P1;PMS_P2;Temp;Humidity;BMP_temperature;BMP_pressure;BME280_temperature;BME280_humidity;BME280_pressure;Samples;Min_cycle;Max_cycle;Signal;HPM_P1;HPM_P2
2023/05/04 00:01:33;;;;;;;12.20;11.50;;;14.00;99.90;;;;;;4937746;28;20478;-78
2023/05/04 00:04:02;;;;;;;12.17;11.50;;;13.90;99.90;;;;;;4933667;28;20493;-77
2023/05/04 00:06:31;;;;;;;11.83;11.13;;;13.80;99.90;;;;;;4935794;28;20456;-79
2023/05/04 00:08:59;;;;;;;11.53;10.80;;;13.80;99.90;;;;;;4937209;28;20474;-79
2023/05/04 00:11:27;;;;;;;12.70;11.83;;;13.80;99.90;;;;;;4937983;28;20495;-79
2023/05/04 00:13:55;;;;;;;11.30;10.80;;;13.80;99.90;;;;;;4937861;28;20573;-78
2023/05/04 00:16:23;;;;;;;12.07;11.17;;;13.80;99.90;;;;;;4937315;28;20551;-79
2023/05/04 00:18:51;;;;;;;11.70;10.90;;;13.80;99.90;;;;;;4936782;29;20456;-77
2023/05/04 00:21:21;;;;;;;12.00;11.30;;;13.80;99.90;;;;;;4939625;28;20494;-78
2023/05/04 00:23:49;;;;;;;12.00;11.40;;;13.80;99.90;;;;;;4938216;28;20611;-78
2023/05/04 00:26:17;;;;;;;11.50;11.00;;;13.80;99.90;;;;;;4934520;28;20456;-77
2023/05/04 00:28:45;;;;;;;12.30;11.47;;;13.70;99.90;;;;;;4935264;28;20478;-78
2023/05/04 00:31:14;;;;;;;13.60;12.80;;;13.70;99.90;;;;;;4936698;28;20482;-79
2023/05/04 00:33:42;;;;;;;12.87;12.13;;;13.60;99.90;;;;;;4936611;28;20459;-78
2023/05/04 00:36:12;;;;;;;12.20;11.60;;;13.70;99.90;;;;;;4935714;28;20551;-77
2023/05/04 00:38:49;;;;;;;12.20;11.50;;;13.70;99.90;;;;;;4937237;29;20576;-78
2023/05/04 00:41:18;;;;;;;13.47;12.50;;;13.70;99.90;;;;;;4937423;28;20546;-77
2023/05/04 00:43:46;;;;;;;12.33;11.67;;;13.70;99.90;;;;;;4932885;28;20487;-77
2023/05/04 00:46:15;;;;;;;12.60;11.80;;;13.70;99.90;;;;;;4936503;28;20479;-78
2023/05/04 00:48:46;;;;;;;13.43;12.40;;;13.60;99.90;;;;;;4935935;28;21026;-78
2023/05/04 00:51:18;;;;;;;12.50;11.80;;;13.60;99.90;;;;;;4938203;29;21011;-77
2023/05/04 00:53:46;;;;;;;12.67;11.90;;;13.50;99.90;;;;;;4937189;28;20470;-78
2023/05/04 00:56:16;;;;;;;12.23;11.63;;;13.50;99.90;;;;;;4936401;28;20453;-79
2023/05/04 00:58:45;;;;;;;13.67;12.77;;;13.50;99.90;;;;;;4945509;28;20475;-78
2023/05/04 01:01:13;;;;;;;12.93;12.33;;;13.50;99.90;;;;;;4944117;28;20492;-79
2023/05/04 01:03:41;;;;;;;13.27;12.47;;;13.50;99.90;;;;;;4944560;28;20484;-79
2023/05/04 01:06:22;;;;;;;13.60;12.77;;;13.50;99.90;;;;;;4949114;28;20484;-78
2023/05/04 01:08:57;;;;;;;13.70;12.93;;;13.50;99.90;;;;;;4938131;28;20471;-78
2023/05/04 01:11:33;;;;;;;13.77;13.00;;;13.40;99.90;;;;;;4936842;28;20540;-78
2023/05/04 01:14:02;;;;;;;12.90;12.30;;;13.40;99.90;;;;;;4933662;28;20455;-78
2023/05/04 01:16:30;;;;;;;14.30;13.40;;;13.40;99.90;;;;;;4935164;28;20534;-78
2023/05/04 01:18:58;;;;;;;13.80;13.10;;;13.40;99.90;;;;;;4934667;28;20746;-78
2023/05/04 01:21:30;;;;;;;13.90;12.83;;;13.40;99.90;;;;;;4934961;28;20579;-77
2023/05/04 01:23:59;;;;;;;14.50;13.70;;;13.30;99.90;;;;;;4935949;28;20661;-77
2023/05/04 01:26:31;;;;;;;14.17;13.37;;;13.30;99.90;;;;;;4934787;28;20455;-78
2023/05/04 01:29:04;;;;;;;14.70;13.57;;;13.40;99.90;;;;;;4937164;29;21260;-79
2023/05/04 01:31:36;;;;;;;13.83;13.03;;;13.40;99.90;;;;;;4937569;28;20487;-78
2023/05/04 01:34:06;;;;;;;14.97;13.97;;;13.40;99.90;;;;;;4935376;28;20459;-78
2023/05/04 01:36:36;;;;;;;14.30;13.50;;;13.30;99.90;;;;;;4934334;28;20522;-78
2023/05/04 01:39:04;;;;;;;14.87;13.97;;;13.40;99.90;;;;;;4938209;28;21043;-79
2023/05/04 01:41:32;;;;;;;16.13;14.93;;;13.40;99.90;;;;;;4935918;28;20536;-79
2023/05/04 01:44:00;;;;;;;15.83;14.93;;;13.30;99.90;;;;;;4935988;28;20484;-78
2023/05/04 01:46:28;;;;;;;15.70;14.67;;;13.30;99.90;;;;;;4932492;28;20464;-79
2023/05/04 01:48:57;;;;;;;15.33;14.43;;;13.30;99.90;;;;;;4934514;28;20461;-78
2023/05/04 01:51:25;;;;;;;15.60;14.80;;;13.30;99.90;;;;;;4934176;28;20481;-79
2023/05/04 01:53:54;;;;;;;15.83;14.80;;;13.20;99.90;;;;;;4935301;29;21001;-78
2023/05/04 01:56:22;;;;;;;16.10;15.20;;;13.30;99.90;;;;;;4935591;28;20467;-78
2023/05/04 01:58:50;;;;;;;15.90;14.90;;;13.20;99.90;;;;;;4937247;28;20460;-80
2023/05/04 02:01:18;;;;;;;16.80;15.70;;;13.20;99.90;;;;;;4934605;28;20936;-78
2023/05/04 02:03:47;;;;;;;17.43;16.33;;;13.20;99.90;;;;;;4934382;28;20476;-78
2023/05/04 02:06:15;;;;;;;17.97;16.67;;;13.20;99.90;;;;;;4939375;28;20463;-79
2023/05/04 02:08:43;;;;;;;17.03;15.90;;;13.20;99.90;;;;;;4934695;28;20709;-78
2023/05/04 02:11:13;;;;;;;17.87;16.77;;;13.20;99.90;;;;;;4935556;28;20484;-79
2023/05/04 02:13:41;;;;;;;17.60;16.60;;;13.10;99.90;;;;;;4938468;28;20452;-79
2023/05/04 02:16:09;;;;;;;19.13;17.30;;;13.10;99.90;;;;;;4937710;28;20467;-77
2023/05/04 02:18:37;;;;;;;19.30;17.77;;;13.10;99.90;;;;;;4937275;28;20547;-78
2023/05/04 02:21:06;;;;;;;18.03;16.70;;;13.20;99.90;;;;;;4944213;28;20482;-78
2023/05/04 02:23:34;;;;;;;17.17;16.27;;;13.10;99.90;;;;;;4939571;28;20492;-78
2023/05/04 02:26:02;;;;;;;16.37;15.47;;;13.00;99.90;;;;;;4942714;28;20452;-77
2023/05/04 02:28:31;;;;;;;16.67;15.67;;;13.00;99.90;;;;;;4943919;28;20561;-77
2023/05/04 02:30:59;;;;;;;17.10;16.10;;;12.90;99.90;;;;;;4942913;28;20494;-78
2023/05/04 02:33:27;;;;;;;17.37;16.37;;;12.80;99.90;;;;;;4941312;28;20458;-78
2023/05/04 02:35:55;;;;;;;17.07;16.00;;;12.70;99.90;;;;;;4941174;28;20537;-77
2023/05/04 02:38:23;;;;;;;20.03;18.53;;;12.70;99.90;;;;;;4940901;28;20564;-75
2023/05/04 02:40:52;;;;;;;21.30;19.60;;;12.70;99.90;;;;;;4940500;28;20498;-78
2023/05/04 02:43:20;;;;;;;20.73;19.13;;;12.80;99.90;;;;;;4939462;28;20715;-78
2023/05/04 02:45:49;;;;;;;20.47;19.07;;;12.90;99.90;;;;;;4941393;28;20484;-79
2023/05/04 02:48:17;;;;;;;20.30;18.90;;;13.00;99.90;;;;;;4943433;28;20977;-77
2023/05/04 02:50:46;;;;;;;19.50;18.10;;;13.00;99.90;;;;;;4943205;28;20471;-78
2023/05/04 02:53:14;;;;;;;20.20;18.90;;;13.00;99.90;;;;;;4943026;28;21028;-78
2023/05/04 02:55:42;;;;;;;19.73;18.57;;;12.90;99.90;;;;;;4940170;28;20461;-79
2023/05/04 02:58:10;;;;;;;20.93;19.30;;;12.90;99.90;;;;;;4940369;28;20459;-78
2023/05/04 03:00:39;;;;;;;19.90;18.50;;;12.90;99.90;;;;;;4942322;28;21032;-79
2023/05/04 03:03:08;;;;;;;18.47;17.23;;;12.80;99.90;;;;;;4943178;28;20460;-79
2023/05/04 03:05:37;;;;;;;17.90;16.70;;;12.70;99.90;;;;;;4942038;28;20488;-78
2023/05/04 03:08:05;;;;;;;17.53;16.33;;;12.60;99.90;;;;;;4943430;28;20523;-77
2023/05/04 03:10:33;;;;;;;15.90;15.07;;;12.40;99.90;;;;;;4941748;28;20572;-79
2023/05/04 03:13:04;;;;;;;16.23;15.40;;;12.40;99.90;;;;;;4941264;28;20545;-79
2023/05/04 03:15:33;;;;;;;15.67;14.73;;;12.30;99.90;;;;;;4946696;28;20458;-79
2023/05/04 03:18:01;;;;;;;15.30;14.50;;;12.20;99.90;;;;;;4940195;28;20517;-79
2023/05/04 03:20:31;;;;;;;16.27;15.23;;;12.10;99.90;;;;;;4941517;28;20492;-79
2023/05/04 03:22:59;;;;;;;16.20;15.20;;;12.10;99.90;;;;;;4941626;28;20460;-79
2023/05/04 03:25:27;;;;;;;16.17;15.17;;;12.00;99.90;;;;;;4942162;28;20477;-79
2023/05/04 03:27:55;;;;;;;15.77;14.60;;;11.90;99.90;;;;;;4938633;28;20508;-79
2023/05/04 03:30:23;;;;;;;15.53;14.60;;;11.90;99.90;;;;;;4940814;28;20541;-79
2023/05/04 03:32:51;;;;;;;15.83;15.03;;;11.80;99.90;;;;;;4938384;29;20466;-79
2023/05/04 03:35:19;;;;;;;15.57;14.70;;;11.80;99.90;;;;;;4939387;28;20454;-79
2023/05/04 03:37:53;;;;;;;15.87;14.73;;;11.70;99.90;;;;;;4940334;28;20529;-78
2023/05/04 03:40:23;;;;;;;15.10;14.20;;;11.70;99.90;;;;;;4938045;28;20491;-79
2023/05/04 03:42:51;;;;;;;15.23;14.37;;;11.60;99.90;;;;;;4935984;28;20459;-79
2023/05/04 03:45:20;;;;;;;16.10;15.20;;;11.60;99.90;;;;;;4930871;28;20550;-79
2023/05/04 03:47:49;;;;;;;15.57;14.57;;;11.60;99.90;;;;;;4935104;28;20464;-79
2023/05/04 03:50:17;;;;;;;15.70;14.80;;;11.60;99.90;;;;;;4938695;28;20490;-79
2023/05/04 03:52:45;;;;;;;15.93;15.03;;;11.50;99.90;;;;;;4938082;28;21036;-77
2023/05/04 03:55:15;;;;;;;14.77;14.03;;;11.50;99.90;;;;;;4934824;28;20864;-78
2023/05/04 03:57:43;;;;;;;15.83;15.03;;;11.50;99.90;;;;;;4936578;29;20451;-77
2023/05/04 04:00:12;;;;;;;15.97;15.03;;;11.50;99.90;;;;;;4934621;28;20474;-78
2023/05/04 04:02:40;;;;;;;15.03;14.17;;;11.50;99.90;;;;;;4938058;28;20494;-78
2023/05/04 04:05:08;;;;;;;15.03;14.20;;;11.40;99.90;;;;;;4938408;28;20494;-79
2023/05/04 04:07:36;;;;;;;16.40;15.40;;;11.30;1.00;;;;;;4939233;28;20463;-78
2023/05/04 04:10:05;;;;;;;15.53;14.60;;;11.30;1.00;;;;;;4937157;28;20567;-79
2023/05/04 04:12:35;;;;;;;15.70;14.80;;;11.30;1.00;;;;;;4938738;28;20604;-75
2023/05/04 04:15:04;;;;;;;15.50;14.70;;;11.30;1.00;;;;;;4937095;28;21246;-78
2023/05/04 04:17:32;;;;;;;16.90;15.90;;;11.20;1.00;;;;;;4940343;28;20467;-78
2023/05/04 04:20:00;;;;;;;16.00;15.10;;;11.20;1.00;;;;;;4935326;29;20720;-77
2023/05/04 04:22:29;;;;;;;16.80;15.90;;;11.20;1.00;;;;;;4938390;28;20470;-78
2023/05/04 04:24:57;;;;;;;17.40;16.20;;;11.20;1.00;;;;;;4940279;28;20887;-78
2023/05/04 04:27:25;;;;;;;17.40;16.30;;;11.10;1.00;;;;;;4939510;28;20458;-78
2023/05/04 04:29:54;;;;;;;18.40;16.80;;;11.10;1.00;;;;;;4937960;28;20569;-78
2023/05/04 04:32:23;;;;;;;18.10;16.90;;;11.10;1.00;;;;;;4938385;28;20451;-78
2023/05/04 04:34:51;;;;;;;17.33;16.20;;;11.20;1.00;;;;;;4941232;28;20461;-79
2023/05/04 04:37:19;;;;;;;17.33;16.33;;;11.20;1.00;;;;;;4936316;28;20609;-80
2023/05/04 04:39:47;;;;;;;18.70;17.33;;;11.20;1.00;;;;;;4937817;28;20492;-79
2023/05/04 04:42:16;;;;;;;19.23;17.77;;;11.20;1.00;;;;;;4938955;28;20449;-79
2023/05/04 04:44:44;;;;;;;20.67;19.10;;;11.30;1.00;;;;;;4940323;28;20467;-80
2023/05/04 04:47:15;;;;;;;19.67;18.27;;;11.30;1.00;;;;;;4940545;29;20490;-80
2023/05/04 04:49:43;;;;;;;20.40;18.80;;;11.40;1.00;;;;;;4944371;28;20465;-80
2023/05/04 04:52:11;;;;;;;21.13;19.63;;;11.40;1.00;;;;;;4938961;28;20465;-80
2023/05/04 04:54:40;;;;;;;22.60;21.00;;;11.40;1.00;;;;;;4941158;29;20453;-80
2023/05/04 04:57:08;;;;;;;24.43;22.63;;;11.20;91.80;;;;;;4937284;28;20196;-82
2023/05/04 04:59:37;;;;;;;23.10;21.17;;;11.60;94.00;;;;;;4939083;28;20478;-82
2023/05/04 05:02:05;;;;;;;21.23;19.50;;;12.00;1.00;;;;;;4941729;29;20452;-81
2023/05/04 05:04:35;;;;;;;21.73;20.10;;;11.90;1.00;;;;;;4940742;28;20455;-81
2023/05/04 05:07:03;;;;;;;19.63;18.33;;;11.90;1.00;;;;;;4941525;28;20486;-81
2023/05/04 05:09:31;;;;;;;22.23;20.73;;;11.90;1.00;;;;;;4944734;28;20474;-82
2023/05/04 05:11:59;;;;;;;23.77;22.03;;;12.00;1.00;;;;;;4945601;28;21012;-81
2023/05/04 05:14:27;;;;;;;23.33;21.73;;;12.00;1.00;;;;;;4941070;28;20471;-81
2023/05/04 05:16:56;;;;;;;23.60;21.70;;;12.20;1.00;;;;;;4940218;28;20462;-81
2023/05/04 05:19:24;;;;;;;22.70;21.03;;;12.20;1.00;;;;;;4942508;28;20460;-79
2023/05/04 05:21:55;;;;;;;24.63;22.90;;;12.30;1.00;;;;;;4944080;28;20467;-81
2023/05/04 05:24:23;;;;;;;24.20;22.40;;;12.40;1.00;;;;;;4943711;28;20463;-82
2023/05/04 05:26:52;;;;;;;23.60;22.00;;;12.50;1.00;;;;;;4943517;28;20540;-82
2023/05/04 05:29:20;;;;;;;23.47;21.97;;;12.60;1.00;;;;;;4946559;28;20457;-82
2023/05/04 05:31:48;;;;;;;23.57;21.70;;;12.60;1.00;;;;;;4943620;28;20462;-82
2023/05/04 05:34:16;;;;;;;23.47;21.77;;;12.70;1.00;;;;;;4943029;28;20449;-81
2023/05/04 05:36:44;;;;;;;22.73;21.13;;;12.70;1.00;;;;;;4940203;28;20507;-82
2023/05/04 05:39:14;;;;;;;21.83;20.43;;;12.70;1.00;;;;;;4939286;28;20482;-82
2023/05/04 05:41:42;;;;;;;22.17;20.83;;;12.80;1.00;;;;;;4937027;28;20462;-83
2023/05/04 05:44:10;;;;;;;22.70;21.20;;;12.90;1.00;;;;;;4937906;28;20460;-81
2023/05/04 05:46:40;;;;;;;21.80;20.20;;;12.90;1.00;;;;;;4939914;28;20813;-82
2023/05/04 05:49:08;;;;;;;22.20;20.70;;;13.00;99.90;;;;;;4940404;28;21153;-79
2023/05/04 05:51:36;;;;;;;22.90;21.50;;;13.10;99.90;;;;;;4943321;28;20497;-81
2023/05/04 05:54:04;;;;;;;23.83;22.07;;;13.10;1.00;;;;;;4942775;28;20472;-79
2023/05/04 05:56:34;;;;;;;22.60;21.10;;;13.20;99.90;;;;;;4938991;28;20457;-81
2023/05/04 05:59:03;;;;;;;22.40;20.70;;;13.40;99.90;;;;;;4942123;28;20464;-81
2023/05/04 06:01:31;;;;;;;21.93;20.53;;;13.50;99.90;;;;;;4943011;28;20494;-82
2023/05/04 06:03:59;;;;;;;23.23;21.70;;;13.60;99.90;;;;;;4941805;28;20458;-82
2023/05/04 06:06:27;;;;;;;22.70;21.30;;;13.80;99.90;;;;;;4940045;28;20499;-82
2023/05/04 06:08:55;;;;;;;22.37;20.70;;;13.90;99.90;;;;;;4949674;28;20463;-83
2023/05/04 06:11:24;;;;;;;23.70;22.07;;;14.00;99.90;;;;;;4945463;28;20443;-82
2023/05/04 06:13:53;;;;;;;23.23;21.63;;;14.10;99.90;;;;;;4946877;28;20460;-82
2023/05/04 06:16:21;;;;;;;21.43;20.00;;;14.30;99.90;;;;;;4942445;28;20468;-82
2023/05/04 06:18:50;;;;;;;21.00;19.70;;;14.50;99.90;;;;;;4943023;29;20467;-83
2023/05/04 06:21:18;;;;;;;21.00;19.70;;;14.50;99.90;;;;;;4943644;28;20475;-82
2023/05/04 06:23:46;;;;;;;21.87;20.37;;;14.50;99.90;;;;;;4942950;28;20470;-82
2023/05/04 06:26:15;;;;;;;21.17;19.77;;;14.60;99.90;;;;;;4943267;28;20490;-82
2023/05/04 06:28:43;;;;;;;19.90;18.67;;;14.70;99.90;;;;;;4944247;28;20913;-82
2023/05/04 06:31:12;;;;;;;19.47;18.27;;;14.90;99.90;;;;;;4940963;28;21084;-81
2023/05/04 06:33:41;;;;;;;19.30;18.20;;;15.10;99.90;;;;;;4935792;28;20460;-82
2023/05/04 06:36:09;;;;;;;19.80;18.63;;;15.30;99.90;;;;;;4946167;28;20460;-82
2023/05/04 06:38:37;;;;;;;19.30;18.07;;;15.40;99.90;;;;;;4943609;28;20495;-82
2023/05/04 06:41:06;;;;;;;21.10;19.83;;;15.60;99.90;;;;;;4940806;28;20489;-81
2023/05/04 06:43:34;;;;;;;20.07;18.77;;;15.90;99.90;;;;;;4942197;28;20468;-81
2023/05/04 06:46:03;;;;;;;18.47;17.50;;;16.10;99.90;;;;;;4941571;28;20464;-82
2023/05/04 06:48:32;;;;;;;18.67;17.67;;;16.10;99.90;;;;;;4938758;28;20456;-83
2023/05/04 06:51:01;;;;;;;18.57;17.50;;;16.30;99.90;;;;;;4939608;28;20485;-82
2023/05/04 06:53:30;;;;;;;18.70;17.70;;;16.40;99.90;;;;;;4939463;28;20947;-82
2023/05/04 06:55:58;;;;;;;18.30;17.30;;;16.50;99.90;;;;;;4940122;28;20239;-83
2023/05/04 06:58:26;;;;;;;18.00;16.63;;;16.60;99.90;;;;;;4940711;28;20486;-83
2023/05/04 07:00:54;;;;;;;17.30;16.40;;;16.60;99.90;;;;;;4942061;28;20487;-82
2023/05/04 07:03:23;;;;;;;17.80;16.77;;;16.70;99.90;;;;;;4944160;28;20489;-84
2023/05/04 07:05:52;;;;;;;16.40;15.70;;;16.80;99.90;;;;;;4942943;28;20461;-84
2023/05/04 07:08:21;;;;;;;17.83;16.93;;;17.00;99.90;;;;;;4942349;28;20865;-82
2023/05/04 07:10:49;;;;;;;18.40;17.30;;;16.90;99.90;;;;;;4942502;28;20565;-83
2023/05/04 07:13:17;;;;;;;17.37;16.47;;;17.00;99.90;;;;;;4942513;28;20490;-84
2023/05/04 07:15:45;;;;;;;16.20;15.40;;;17.10;99.90;;;;;;4940987;29;20463;-84
2023/05/04 07:18:14;;;;;;;17.37;16.47;;;17.00;99.90;;;;;;4941177;28;20565;-81
2023/05/04 07:20:42;;;;;;;17.03;16.10;;;17.00;99.90;;;;;;4943530;28;20565;-81
2023/05/04 07:23:11;;;;;;;16.90;16.03;;;17.10;99.90;;;;;;4936296;28;21028;-84
2023/05/04 07:25:40;;;;;;;16.30;15.60;;;17.00;99.90;;;;;;4940762;28;20492;-84
2023/05/04 07:28:08;;;;;;;15.90;15.30;;;17.00;99.90;;;;;;4942392;28;20597;-83
2023/05/04 07:30:36;;;;;;;15.73;15.03;;;16.90;99.90;;;;;;4941520;28;20485;-83
2023/05/04 07:33:05;;;;;;;17.20;16.30;;;16.90;99.90;;;;;;4942771;28;20458;-82
2023/05/04 07:35:33;;;;;;;16.30;15.50;;;16.90;99.90;;;;;;4939705;29;21122;-83
2023/05/04 07:38:02;;;;;;;15.93;15.23;;;16.90;99.90;;;;;;4940748;28;20451;-83
2023/05/04 07:40:32;;;;;;;17.53;16.63;;;16.80;99.90;;;;;;4943727;28;20470;-83
2023/05/04 07:43:01;;;;;;;16.47;15.57;;;16.90;99.90;;;;;;4941879;28;20475;-83
2023/05/04 07:45:29;;;;;;;15.30;14.70;;;16.90;99.90;;;;;;4943374;28;20767;-84
2023/05/04 07:47:58;;;;;;;15.80;15.10;;;16.80;99.90;;;;;;4939217;28;20496;-81
2023/05/04 07:50:26;;;;;;;17.27;16.27;;;16.90;99.90;;;;;;4948578;28;20476;-83
2023/05/04 07:52:54;;;;;;;16.70;15.90;;;16.90;99.90;;;;;;4944753;28;20476;-82
2023/05/04 07:55:22;;;;;;;15.83;15.13;;;16.90;99.90;;;;;;4943608;28;20475;-82
2023/05/04 07:57:52;;;;;;;16.60;15.90;;;16.90;99.90;;;;;;4945794;28;20471;-83
2023/05/04 08:00:21;;;;;;;16.43;15.67;;;17.00;99.90;;;;;;4948512;28;20482;-82
2023/05/04 08:02:49;;;;;;;16.43;15.73;;;17.00;99.90;;;;;;4942422;28;20459;-82
2023/05/04 08:05:18;;;;;;;16.67;15.77;;;17.00;99.90;;;;;;4941784;28;20968;-83
2023/05/04 08:07:46;;;;;;;17.20;16.40;;;17.00;99.90;;;;;;4941908;28;20488;-83
2023/05/04 08:10:14;;;;;;;18.30;17.20;;;17.00;99.90;;;;;;4942452;28;20491;-83
2023/05/04 08:12:43;;;;;;;16.70;15.80;;;17.00;99.90;;;;;;4940980;28;20534;-83
2023/05/04 08:15:13;;;;;;;16.67;15.87;;;17.10;99.90;;;;;;4947088;28;20473;-82
2023/05/04 08:17:41;;;;;;;16.30;15.60;;;17.10;99.90;;;;;;4942285;28;20481;-83
2023/05/04 08:20:10;;;;;;;17.40;16.60;;;17.10;99.90;;;;;;4945895;28;20493;-82
2023/05/04 08:22:38;;;;;;;17.27;16.37;;;17.10;99.90;;;;;;4943413;28;20467;-83
2023/05/04 08:25:08;;;;;;;16.60;15.80;;;17.10;99.90;;;;;;4935353;28;20464;-82
2023/05/04 08:27:36;;;;;;;17.50;16.33;;;17.20;99.90;;;;;;4941471;28;21468;-84
2023/05/04 08:30:11;;;;;;;16.43;15.40;;;17.20;99.90;;;;;;4946765;28;20476;-83
2023/05/04 08:32:41;;;;;;;16.33;15.53;;;17.20;99.90;;;;;;4944234;28;20459;-84
2023/05/04 08:35:09;;;;;;;16.60;15.80;;;17.30;99.90;;;;;;4938686;28;20559;-83
2023/05/04 08:37:37;;;;;;;16.23;15.63;;;17.30;99.90;;;;;;4939256;28;20470;-84
2023/05/04 08:40:07;;;;;;;16.43;15.40;;;17.30;99.90;;;;;;4935482;28;20499;-83
2023/05/04 08:42:36;;;;;;;15.70;15.00;;;17.40;99.90;;;;;;4942706;28;20467;-83
2023/05/04 08:45:05;;;;;;;16.03;15.23;;;17.30;99.90;;;;;;4941405;28;20490;-84
2023/05/04 08:47:34;;;;;;;16.60;15.90;;;17.40;99.90;;;;;;4939964;28;20487;-84
2023/05/04 08:50:06;;;;;;;16.70;15.60;;;17.40;99.90;;;;;;4941984;28;20498;-82
2023/05/04 08:52:36;;;;;;;15.30;14.60;;;17.40;99.90;;;;;;4944449;28;20551;-83
2023/05/04 08:55:06;;;;;;;15.73;15.03;;;17.50;99.90;;;;;;4942403;28;21032;-83
2023/05/04 08:57:35;;;;;;;15.33;14.63;;;17.50;99.90;;;;;;4941407;28;20499;-83
2023/05/04 09:00:04;;;;;;;16.63;15.80;;;17.40;99.90;;;;;;4942312;28;20542;-82
2023/05/04 09:02:34;;;;;;;17.20;16.37;;;17.40;99.90;;;;;;4940777;28;21003;-83
2023/05/04 09:05:03;;;;;;;15.70;15.00;;;17.50;99.90;;;;;;4944130;28;21235;-83
2023/05/04 09:07:32;;;;;;;17.52;16.63;;;17.50;99.90;;;;;;4945785;28;21090;-84
2023/05/04 09:10:01;;;;;;;16.67;15.60;;;17.60;99.90;;;;;;4949553;29;20251;-84
2023/05/04 09:12:30;;;;;;;15.97;15.27;;;17.60;99.90;;;;;;4943311;28;20468;-81
2023/05/04 09:15:00;;;;;;;16.40;15.70;;;17.70;99.90;;;;;;4943766;28;20467;-82
2023/05/04 09:17:29;;;;;;;17.70;16.80;;;17.70;99.90;;;;;;4951012;28;20467;-83
2023/05/04 09:19:59;;;;;;;16.43;15.73;;;17.70;99.90;;;;;;4943574;28;20895;-83
2023/05/04 09:22:29;;;;;;;15.63;14.93;;;17.80;99.90;;;;;;4944462;28;20496;-82
2023/05/04 09:25:06;;;;;;;16.00;15.30;;;17.80;99.90;;;;;;4941993;28;20475;-83
2023/05/04 09:27:35;;;;;;;16.10;15.30;;;17.80;99.90;;;;;;4944094;28;20455;-84
2023/05/04 09:30:04;;;;;;;16.53;15.83;;;17.90;99.90;;;;;;4944282;29;20584;-84
2023/05/04 09:32:36;;;;;;;17.67;16.90;;;18.00;99.90;;;;;;4943592;28;20440;-84
2023/05/04 09:35:06;;;;;;;16.83;15.87;;;18.10;99.90;;;;;;4944141;28;20552;-79
2023/05/04 09:37:43;;;;;;;15.80;15.00;;;18.00;99.90;;;;;;4944008;29;20514;-85
2023/05/04 09:40:13;;;;;;;16.43;15.50;;;18.10;99.90;;;;;;4946636;28;20488;-84
2023/05/04 09:42:42;;;;;;;15.23;14.43;;;18.00;99.90;;;;;;4946613;28;21136;-83
2023/05/04 09:45:11;;;;;;;16.03;15.23;;;18.10;99.90;;;;;;4946007;28;20927;-84
2023/05/04 09:47:40;;;;;;;15.40;14.80;;;18.10;99.90;;;;;;4941499;28;20460;-84
2023/05/04 09:50:17;;;;;;;15.97;15.37;;;18.30;99.90;;;;;;4946123;29;20476;-84
2023/05/04 09:52:50;;;;;;;15.20;14.50;;;18.30;99.90;;;;;;4944288;28;20505;-83
2023/05/04 09:55:19;;;;;;;15.27;14.63;;;18.30;99.90;;;;;;4945121;29;20531;-83
2023/05/04 09:57:49;;;;;;;15.67;14.97;;;18.30;99.90;;;;;;4938601;29;20511;-84
2023/05/04 10:00:18;;;;;;;15.70;14.90;;;18.40;99.90;;;;;;4938152;28;20483;-83
2023/05/04 10:02:47;;;;;;;14.77;14.00;;;18.40;99.90;;;;;;4938609;28;20515;-84
2023/05/04 10:05:17;;;;;;;15.20;14.50;;;18.40;99.90;;;;;;4942043;28;20997;-82
2023/05/04 10:07:46;;;;;;;14.73;14.10;;;18.40;99.90;;;;;;4942673;28;20452;-84
2023/05/04 10:10:15;;;;;;;14.50;14.00;;;18.40;99.90;;;;;;4938700;28;20483;-84
2023/05/04 10:12:44;;;;;;;14.17;13.67;;;18.50;99.90;;;;;;4936645;28;20981;-84
2023/05/04 10:15:15;;;;;;;15.20;14.57;;;18.50;99.90;;;;;;4939225;29;20961;-84
2023/05/04 10:17:58;;;;;;;14.77;13.80;;;18.60;99.90;;;;;;4941971;29;20905;-83
2023/05/04 10:20:50;;;;;;;13.93;13.43;;;18.60;99.90;;;;;;4942299;28;20480;-84
2023/05/04 10:23:53;;;;;;;14.60;14.00;;;18.70;99.90;;;;;;4938346;28;20457;-84
2023/05/04 10:26:46;;;;;;;14.47;13.90;;;18.80;99.90;;;;;;4936688;28;20566;-83
2023/05/04 10:29:21;;;;;;;14.57;13.90;;;18.80;99.90;;;;;;4939507;28;20503;-84
2023/05/04 10:31:52;;;;;;;14.03;13.53;;;18.90;99.90;;;;;;4939318;28;20475;-84
2023/05/04 10:34:25;;;;;;;13.67;13.27;;;19.00;99.90;;;;;;4939433;28;21262;-84
2023/05/04 10:36:54;;;;;;;14.57;13.87;;;18.90;99.90;;;;;;4939375;28;20994;-84
2023/05/04 10:39:23;;;;;;;14.47;13.77;;;19.00;99.90;;;;;;4939591;29;20460;-81
2023/05/04 10:42:02;;;;;;;14.30;13.60;;;19.00;99.90;;;;;;4943438;28;20475;-83
2023/05/04 10:44:31;;;;;;;14.00;13.40;;;19.00;99.90;;;;;;4942866;28;20456;-83
2023/05/04 10:47:01;;;;;;;13.77;13.07;;;19.10;99.90;;;;;;4944085;28;20472;-83
2023/05/04 10:49:30;;;;;;;13.87;13.10;;;19.10;99.90;;;;;;4944752;28;20966;-84
2023/05/04 10:52:09;;;;;;;13.37;12.87;;;19.10;99.90;;;;;;4942730;29;20448;-83
2023/05/04 10:54:38;;;;;;;13.70;13.00;;;19.20;99.90;;;;;;4946851;28;20593;-83
2023/05/04 10:57:09;;;;;;;14.00;13.43;;;19.20;99.90;;;;;;4941978;28;20869;-83
2023/05/04 10:59:42;;;;;;;13.30;12.80;;;19.20;99.90;;;;;;4942253;28;20456;-84
2023/05/04 11:02:21;;;;;;;13.17;12.67;;;19.20;99.90;;;;;;4941626;29;20463;-83
2023/05/04 11:05:00;;;;;;;12.60;12.10;;;19.30;99.90;;;;;;4938027;28;20560;-84
2023/05/04 11:07:36;;;;;;;11.73;11.33;;;19.40;99.90;;;;;;4938445;28;20464;-84
2023/05/04 11:10:06;;;;;;;11.33;10.80;;;19.40;99.90;;;;;;4936398;28;20495;-83
2023/05/04 11:12:38;;;;;;;10.70;10.30;;;19.30;99.90;;;;;;4942748;28;20829;-85
2023/05/04 11:15:09;;;;;;;10.23;9.93;;;19.30;99.90;;;;;;4949552;28;20496;-82
2023/05/04 11:17:45;;;;;;;11.67;11.07;;;19.30;99.90;;;;;;4948345;29;20501;-84
2023/05/04 11:20:21;;;;;;;10.97;10.57;;;19.30;99.90;;;;;;4945244;28;20559;-85
2023/05/04 11:22:50;;;;;;;10.70;10.40;;;19.30;99.90;;;;;;4940705;28;20451;-82
2023/05/04 11:25:26;;;;;;;10.17;9.87;;;19.40;99.90;;;;;;4937108;28;20467;-82
2023/05/04 11:27:56;;;;;;;10.57;10.07;;;19.40;99.90;;;;;;4940446;28;20461;-83
2023/05/04 11:30:32;;;;;;;10.90;10.40;;;19.50;99.90;;;;;;4941237;28;20240;-82
2023/05/04 11:33:01;;;;;;;10.43;10.13;;;19.60;99.90;;;;;;4947009;28;20452;-82
2023/05/04 11:35:29;;;;;;;10.77;10.37;;;19.70;99.90;;;;;;4947593;28;20461;-82
2023/05/04 11:37:58;;;;;;;10.00;9.70;;;19.70;99.90;;;;;;4949554;28;21043;-83
2023/05/04 11:40:27;;;;;;;10.00;9.70;;;19.70;99.90;;;;;;4947655;28;20828;-83
2023/05/04 11:42:57;;;;;;;10.60;10.30;;;19.60;99.90;;;;;;4948988;28;20456;-83
2023/05/04 11:45:28;;;;;;;9.50;9.20;;;19.60;99.90;;;;;;4949055;28;20452;-82
2023/05/04 11:47:58;;;;;;;9.80;9.43;;;19.70;99.90;;;;;;4947590;28;20541;-83
2023/05/04 11:50:28;;;;;;;10.03;9.73;;;19.70;99.90;;;;;;4948675;28;20510;-82
2023/05/04 11:53:05;;;;;;;9.93;9.63;;;19.80;99.90;;;;;;4948344;28;20631;-83
2023/05/04 11:55:33;;;;;;;10.10;9.80;;;19.90;99.90;;;;;;4946681;29;21097;-81
2023/05/04 11:58:04;;;;;;;9.77;9.57;;;19.80;99.90;;;;;;4949330;28;20460;-82
2023/05/04 12:00:38;;;;;;;10.70;10.30;;;19.90;99.90;;;;;;4947575;28;20479;-82
2023/05/04 12:03:11;;;;;;;9.80;9.50;;;19.90;99.90;;;;;;4947977;28;20455;-82
2023/05/04 12:05:46;;;;;;;8.83;8.50;;;19.90;99.90;;;;;;4944296;28;20487;-82
2023/05/04 12:08:24;;;;;;;8.53;8.33;;;20.00;99.90;;;;;;4945358;28;20469;-80
2023/05/04 12:11:08;;;;;;;9.10;8.57;;;20.00;99.90;;;;;;4939067;28;20492;-82
2023/05/04 12:13:37;;;;;;;8.90;8.60;;;20.00;99.90;;;;;;4945983;29;20460;-82
2023/05/04 12:16:09;;;;;;;8.57;8.27;;;20.00;99.90;;;;;;4943582;28;20488;-81
2023/05/04 12:18:37;;;;;;;8.87;8.60;;;20.00;99.90;;;;;;4959910;28;20483;-82
2023/05/04 12:21:10;;;;;;;8.33;8.03;;;20.00;99.90;;;;;;4944722;28;20566;-82
2023/05/04 12:23:38;;;;;;;8.03;7.63;;;20.00;99.90;;;;;;4946543;28;20464;-82
2023/05/04 12:26:06;;;;;;;8.50;8.20;;;20.10;99.90;;;;;;4945258;28;20515;-82
2023/05/04 12:28:35;;;;;;;8.37;8.07;;;20.20;99.90;;;;;;4938130;28;20452;-83
2023/05/04 12:31:06;;;;;;;8.40;8.20;;;20.20;99.90;;;;;;4935183;28;21342;-84
2023/05/04 12:33:34;;;;;;;8.30;8.10;;;20.20;99.90;;;;;;4942467;28;20493;-83
2023/05/04 12:36:04;;;;;;;7.73;7.53;;;20.20;99.90;;;;;;4944035;28;21050;-83
2023/05/04 12:38:33;;;;;;;7.50;7.20;;;20.20;99.90;;;;;;4943960;28;20465;-82
2023/05/04 12:41:03;;;;;;;8.00;7.60;;;20.20;99.90;;;;;;4940917;28;20469;-82
2023/05/04 12:43:32;;;;;;;8.13;7.80;;;20.20;99.90;;;;;;4933236;28;20468;-84